createdAt,value
2022-09-10T00:00:25.788Z,95.36
2022-09-10T00:02:53.566Z,94.38
2022-09-10T00:05:21.319Z,90.27
2022-09-10T00:07:48.700Z,83.21
2022-09-10T00:10:18.647Z,82.39
2022-09-10T00:12:48.231Z,81.54
2022-09-10T00:15:16.072Z,80.79
2022-09-10T00:17:43.835Z,80.87
2022-09-10T00:20:11.324Z,80.60
2022-09-10T00:22:39.164Z,84.03
2022-09-10T00:25:08.468Z,83.19
2022-09-10T00:27:36.220Z,82.36
2022-09-10T00:30:04.118Z,79.61
2022-09-10T00:32:32.094Z,77.29
2022-09-10T00:35:01.271Z,78.09
2022-09-10T00:37:28.890Z,78.62
2022-09-10T00:39:56.970Z,82.78
2022-09-10T00:42:25.689Z,86.46
2022-09-10T00:45:02.110Z,89.77
2022-09-10T00:47:38.185Z,89.00
2022-09-10T00:50:22.090Z,87.75
2022-09-10T00:52:51.333Z,90.36
2022-09-10T00:55:19.497Z,86.09
2022-09-10T00:57:49.516Z,78.99
2022-09-10T01:00:17.465Z,78.22
2022-09-10T01:02:45.108Z,82.14
2022-09-10T01:05:13.804Z,86.17
2022-09-10T01:07:41.200Z,88.42
2022-09-10T01:10:14.001Z,88.50
2022-09-10T01:13:09.343Z,81.46
2022-09-10T01:15:54.482Z,85.12
2022-09-10T01:18:53.011Z,86.95
2022-09-10T01:21:26.843Z,87.55
2022-09-10T01:24:00.195Z,86.87
2022-09-10T01:26:55.086Z,83.23
2022-09-10T01:29:22.927Z,80.89
2022-09-10T01:31:58.548Z,78.04
2022-09-10T01:34:37.049Z,85.73
2022-09-10T01:37:09.659Z,81.46
2022-09-10T01:39:37.832Z,75.83
2022-09-10T01:42:06.824Z,73.96
2022-09-10T01:44:49.399Z,72.11
2022-09-10T01:47:36.135Z,71.96
2022-09-10T01:50:30.090Z,81.05
2022-09-10T01:53:39.941Z,86.04
2022-09-10T01:56:25.964Z,88.79
2022-09-10T01:58:57.892Z,90.62
2022-09-10T02:01:46.137Z,90.56
2022-09-10T02:04:15.261Z,89.72
2022-09-10T02:06:45.934Z,90.13
2022-09-10T02:09:15.080Z,83.49
2022-09-10T02:11:54.109Z,87.33
2022-09-10T02:14:22.675Z,84.81
2022-09-10T02:16:58.802Z,86.85
2022-09-10T02:19:27.443Z,80.72
2022-09-10T02:21:57.329Z,77.57
2022-09-10T02:24:24.992Z,77.29
2022-09-10T02:26:52.438Z,78.68
2022-09-10T02:29:20.139Z,76.58
2022-09-10T02:31:47.761Z,77.84
2022-09-10T02:34:16.085Z,79.31
2022-09-10T02:36:46.908Z,79.74
2022-09-10T02:39:14.706Z,79.03
2022-09-10T02:41:42.246Z,83.38
2022-09-10T02:44:10.220Z,78.73
2022-09-10T02:46:38.300Z,77.77
2022-09-10T02:49:06.200Z,77.18
2022-09-10T02:51:37.027Z,77.06
2022-09-10T02:54:05.023Z,76.77
2022-09-10T02:56:32.481Z,76.06
2022-09-10T02:59:00.488Z,74.94
2022-09-10T03:01:28.574Z,75.05
2022-09-10T03:03:58.837Z,76.17
2022-09-10T03:06:27.699Z,75.24
2022-09-10T03:08:57.850Z,79.18
2022-09-10T03:11:27.607Z,75.17
2022-09-10T03:13:55.514Z,72.43
2022-09-10T03:16:24.275Z,72.67
2022-09-10T03:18:52.423Z,72.88
2022-09-10T03:21:21.932Z,74.83
2022-09-10T03:23:50.944Z,81.59
2022-09-10T03:26:20.838Z,78.25
2022-09-10T03:28:48.779Z,77.22
2022-09-10T03:31:16.726Z,74.28
2022-09-10T03:33:46.129Z,73.76
2022-09-10T03:36:13.857Z,73.35
2022-09-10T03:38:42.118Z,74.09
2022-09-10T03:41:09.943Z,73.72
2022-09-10T03:43:37.817Z,73.33
2022-09-10T03:46:05.781Z,74.60
2022-09-10T03:48:35.446Z,73.22
2022-09-10T03:51:02.908Z,74.61
2022-09-10T03:53:30.493Z,76.34
2022-09-10T03:55:58.476Z,73.46
2022-09-10T03:58:26.807Z,73.09
2022-09-10T04:00:54.391Z,79.81
2022-09-10T04:03:23.077Z,76.63
2022-09-10T04:05:51.930Z,74.45
2022-09-10T04:08:20.580Z,73.31
2022-09-10T04:10:48.401Z,82.04
2022-09-10T04:13:16.369Z,83.91
2022-09-10T04:15:47.099Z,83.12
2022-09-10T04:18:14.804Z,80.63
2022-09-10T04:20:46.643Z,82.39
2022-09-10T04:23:16.444Z,82.02
2022-09-10T04:25:44.659Z,82.71
2022-09-10T04:28:12.360Z,82.79
2022-09-10T04:30:40.349Z,80.82
2022-09-10T04:33:08.503Z,81.96
2022-09-10T04:35:35.949Z,82.23
2022-09-10T04:38:04.198Z,80.62
2022-09-10T04:40:31.906Z,78.83
2022-09-10T04:42:59.278Z,75.66
2022-09-10T04:45:27.142Z,73.99
2022-09-10T04:47:56.049Z,73.90
2022-09-10T04:50:23.487Z,74.11
2022-09-10T04:53:06.162Z,72.74
2022-09-10T04:55:33.979Z,71.97
2022-09-10T04:58:02.487Z,71.19
2022-09-10T05:00:30.230Z,71.58
2022-09-10T05:02:58.627Z,72.37
2022-09-10T05:05:25.992Z,71.17
2022-09-10T05:07:53.502Z,72.27
2022-09-10T05:10:23.514Z,72.35
2022-09-10T05:12:51.023Z,73.27
2022-09-10T05:15:18.617Z,71.82
2022-09-10T05:17:47.999Z,69.88
2022-09-10T05:20:15.879Z,71.47
2022-09-10T05:22:44.921Z,70.74
2022-09-10T05:25:12.545Z,70.03
2022-09-10T05:27:40.117Z,70.68
2022-09-10T05:30:08.448Z,71.22
2022-09-10T05:32:36.287Z,71.30
2022-09-10T05:35:05.374Z,72.62
2022-09-10T05:37:37.337Z,71.48
2022-09-10T05:40:09.245Z,71.54
2022-09-10T05:42:36.779Z,71.56
2022-09-10T05:45:04.432Z,71.18
2022-09-10T05:47:34.484Z,70.70
2022-09-10T05:50:02.143Z,69.78
2022-09-10T05:52:30.955Z,70.12
2022-09-10T05:54:59.685Z,69.24
2022-09-10T05:57:27.550Z,70.56
2022-09-10T05:59:54.939Z,69.73
2022-09-10T06:02:24.452Z,70.74
2022-09-10T06:04:53.025Z,69.09
2022-09-10T06:07:20.836Z,69.17
2022-09-10T06:09:48.331Z,69.90
2022-09-10T06:12:19.325Z,72.72
2022-09-10T06:14:47.008Z,71.04
2022-09-10T06:17:14.405Z,70.16
2022-09-10T06:19:43.080Z,69.63
2022-09-10T06:22:11.691Z,71.77
2022-09-10T06:24:39.576Z,69.99
2022-09-10T06:27:07.277Z,69.73
2022-09-10T06:29:36.802Z,71.04
2022-09-10T06:32:05.275Z,70.34
2022-09-10T06:34:33.076Z,72.73
2022-09-10T06:37:02.581Z,74.55
2022-09-10T06:39:32.516Z,71.75
2022-09-10T06:42:00.578Z,71.97
2022-09-10T06:44:29.502Z,70.83
2022-09-10T06:47:32.431Z,74.10
2022-09-10T06:49:45.645Z,72.57
2022-09-10T06:52:13.064Z,71.03
2022-09-10T06:54:40.518Z,74.22
2022-09-10T06:57:13.831Z,72.21
2022-09-10T06:59:41.619Z,71.25
2022-09-10T07:02:09.444Z,73.57
2022-09-10T07:04:37.504Z,73.71
2022-09-10T07:07:05.368Z,72.57
2022-09-10T07:09:33.050Z,73.23
2022-09-10T07:12:02.923Z,73.28
2022-09-10T07:14:30.923Z,71.62
2022-09-10T07:16:58.774Z,71.62
2022-09-10T07:19:29.802Z,71.64
2022-09-10T07:21:57.402Z,71.08
2022-09-10T07:24:24.857Z,70.48
2022-09-10T07:26:53.778Z,69.25
2022-09-10T07:29:23.430Z,68.92
2022-09-10T07:31:52.466Z,68.44
2022-09-10T07:34:20.512Z,67.56
2022-09-10T07:36:47.918Z,67.49
2022-09-10T07:39:16.180Z,66.58
2022-09-10T07:41:43.998Z,66.23
2022-09-10T07:44:12.126Z,65.60
2022-09-10T07:46:39.577Z,67.70
2022-09-10T07:49:09.335Z,67.57
2022-09-10T07:51:38.322Z,67.70
2022-09-10T07:54:05.984Z,67.76
2022-09-10T07:56:34.777Z,68.55
2022-09-10T07:59:02.815Z,71.32
2022-09-10T08:01:31.814Z,76.76
2022-09-10T08:04:01.182Z,75.86
2022-09-10T08:06:28.931Z,73.44
2022-09-10T08:08:56.782Z,72.27
2022-09-10T08:11:25.313Z,68.61
2022-09-10T08:13:54.041Z,70.65
2022-09-10T08:16:23.773Z,69.58
2022-09-10T08:18:51.897Z,71.40
2022-09-10T08:21:19.876Z,70.86
2022-09-10T08:23:52.201Z,69.70
2022-09-10T08:26:23.731Z,69.41
2022-09-10T08:28:52.751Z,65.69
2022-09-10T08:31:20.492Z,66.64
2022-09-10T08:33:50.590Z,67.99
2022-09-10T08:36:18.939Z,66.68
2022-09-10T08:38:46.751Z,66.95
2022-09-10T08:41:32.276Z,67.17
2022-09-10T08:44:03.438Z,68.38
2022-09-10T08:46:35.585Z,65.42
2022-09-10T08:49:09.456Z,65.92
2022-09-10T08:51:48.899Z,64.93
2022-09-10T08:54:25.464Z,62.44
2022-09-10T08:56:55.410Z,65.05
2022-09-10T08:59:33.463Z,63.37
2022-09-10T09:02:47.074Z,62.77
2022-09-10T09:05:22.835Z,62.65
2022-09-10T09:07:51.487Z,61.60
2022-09-10T09:10:25.241Z,62.01
2022-09-10T09:13:27.976Z,64.21
2022-09-10T09:16:04.993Z,62.10
2022-09-10T09:18:35.351Z,64.39
2022-09-10T09:21:15.803Z,61.15
2022-09-10T09:24:12.693Z,63.71
2022-09-10T09:26:46.028Z,63.02
2022-09-10T09:29:27.026Z,60.18
2022-09-10T09:31:58.281Z,60.71
2022-09-10T09:34:28.840Z,57.66
2022-09-10T09:36:58.917Z,56.40
2022-09-10T09:39:30.969Z,55.73
2022-09-10T09:42:14.635Z,55.41
2022-09-10T09:45:00.448Z,57.37
2022-09-10T09:47:28.272Z,58.19
2022-09-10T09:49:56.204Z,56.52
2022-09-10T09:52:24.914Z,55.15
2022-09-10T09:55:15.979Z,53.67
2022-09-10T09:57:43.546Z,54.09
2022-09-10T10:00:36.173Z,52.42
2022-09-10T10:03:07.324Z,52.42
2022-09-10T10:05:36.184Z,53.74
2022-09-10T10:08:03.866Z,53.65
2022-09-10T10:10:31.238Z,53.22
2022-09-10T10:12:58.601Z,54.82
2022-09-10T10:15:38.780Z,52.00
2022-09-10T10:18:31.717Z,51.95
2022-09-10T10:21:24.095Z,53.46
2022-09-10T10:23:51.473Z,53.03
2022-09-10T10:26:21.960Z,54.27
2022-09-10T10:28:55.171Z,52.03
2022-09-10T10:31:23.715Z,51.55
2022-09-10T10:34:15.115Z,53.29
2022-09-10T10:37:01.500Z,51.94
2022-09-10T10:40:03.090Z,51.22
2022-09-10T10:42:47.686Z,50.00
2022-09-10T10:45:31.079Z,47.07
2022-09-10T10:48:12.380Z,46.08
2022-09-10T10:50:58.192Z,47.63
2022-09-10T10:53:44.492Z,45.75
2022-09-10T10:56:20.303Z,46.76
2022-09-10T10:59:00.093Z,45.88
2022-09-10T11:01:30.134Z,46.02
2022-09-10T11:04:23.138Z,44.03
2022-09-10T11:06:58.623Z,45.61
2022-09-10T11:09:28.828Z,43.13
2022-09-10T11:11:57.564Z,41.82
2022-09-10T11:15:04.300Z,44.29
2022-09-10T11:17:40.334Z,42.53
2022-09-10T11:20:28.456Z,44.07
2022-09-10T11:23:21.917Z,43.03
2022-09-10T11:26:05.928Z,42.98
2022-09-10T11:28:41.451Z,44.15
2022-09-10T11:31:21.831Z,44.58
2022-09-10T11:33:59.979Z,42.91
2022-09-10T11:36:31.278Z,44.19
2022-09-10T11:39:13.337Z,43.24
2022-09-10T11:41:42.587Z,44.32
2022-09-10T11:44:16.444Z,44.21
2022-09-10T11:47:11.494Z,43.63
2022-09-10T11:49:54.234Z,44.92
2022-09-10T11:52:22.471Z,43.06
2022-09-10T11:54:50.083Z,41.36
2022-09-10T11:57:27.528Z,41.48
2022-09-10T12:00:07.153Z,43.03
2022-09-10T12:02:43.466Z,43.37
2022-09-10T12:05:28.420Z,40.95
2022-09-10T12:08:11.105Z,41.90
2022-09-10T12:10:48.253Z,40.97
2022-09-10T12:13:16.055Z,39.92
2022-09-10T12:15:51.316Z,39.73
2022-09-10T12:18:21.975Z,43.05
2022-09-10T12:20:55.026Z,43.23
2022-09-10T12:23:29.832Z,41.80
2022-09-10T12:26:11.020Z,42.00
2022-09-10T12:28:41.805Z,42.46
2022-09-10T12:31:11.556Z,41.14
2022-09-10T12:33:44.925Z,41.18
2022-09-10T12:36:14.312Z,42.46
2022-09-10T12:39:20.045Z,43.17
2022-09-10T12:41:47.537Z,43.21
2022-09-10T12:44:36.667Z,42.17
2022-09-10T12:47:16.487Z,41.96
2022-09-10T12:49:50.474Z,42.80
2022-09-10T12:52:25.960Z,43.45
2022-09-10T12:55:10.620Z,42.55
2022-09-10T12:57:56.760Z,41.85
2022-09-10T13:00:25.954Z,42.13
2022-09-10T13:03:15.254Z,41.17
2022-09-10T13:05:45.493Z,41.33
2022-09-10T13:08:16.160Z,41.99
2022-09-10T13:10:55.009Z,42.80
2022-09-10T13:13:39.435Z,42.37
2022-09-10T13:16:12.474Z,42.06
2022-09-10T13:18:42.084Z,44.21
2022-09-10T13:21:24.570Z,43.03
2022-09-10T13:23:56.566Z,43.15
2022-09-10T13:26:37.412Z,42.15
2022-09-10T13:29:11.352Z,43.11
2022-09-10T13:31:49.889Z,41.50
2022-09-10T13:34:43.171Z,42.81
2022-09-10T13:37:19.642Z,42.92
2022-09-10T13:40:18.396Z,43.15
2022-09-10T13:43:09.949Z,42.66
2022-09-10T13:45:50.775Z,41.21
2022-09-10T13:48:22.766Z,42.36
2022-09-10T13:51:09.140Z,41.50
2022-09-10T13:53:40.230Z,41.76
2022-09-10T13:56:22.253Z,42.41
2022-09-10T13:58:52.536Z,42.62
2022-09-10T14:01:20.359Z,42.89
2022-09-10T14:03:48.110Z,42.12
2022-09-10T14:06:25.311Z,42.89
2022-09-10T14:08:56.636Z,42.63
2022-09-10T14:11:31.960Z,43.36
2022-09-10T14:14:05.975Z,42.28
2022-09-10T14:16:44.575Z,41.71
2022-09-10T14:19:20.111Z,40.81
2022-09-10T14:21:49.110Z,40.00
2022-09-10T14:24:34.293Z,40.03
2022-09-10T14:27:15.647Z,41.41
2022-09-10T14:29:43.675Z,42.10
2022-09-10T14:32:31.670Z,42.15
2022-09-10T14:35:20.072Z,42.23
2022-09-10T14:37:47.468Z,43.24
2022-09-10T14:40:20.894Z,40.93
2022-09-10T14:42:49.581Z,42.10
2022-09-10T14:45:39.279Z,41.88
2022-09-10T14:48:32.637Z,40.76
2022-09-10T14:51:22.784Z,41.16
2022-09-10T14:53:52.128Z,40.97
2022-09-10T14:56:33.476Z,39.82
2022-09-10T14:59:16.485Z,39.82
2022-09-10T15:01:45.608Z,40.76
2022-09-10T15:04:15.777Z,41.15
2022-09-10T15:06:46.116Z,39.41
2022-09-10T15:09:14.868Z,40.02
2022-09-10T15:11:59.027Z,40.18
2022-09-10T15:14:26.918Z,40.04
2022-09-10T15:16:54.245Z,40.43
2022-09-10T15:19:22.683Z,40.54
2022-09-10T15:21:50.948Z,40.66
2022-09-10T15:24:20.460Z,41.46
2022-09-10T15:26:48.461Z,41.22
2022-09-10T15:29:17.789Z,41.60
2022-09-10T15:31:45.193Z,41.07
2022-09-10T15:34:12.614Z,40.94
2022-09-10T15:36:40.850Z,41.02
2022-09-10T15:39:11.795Z,40.61
2022-09-10T15:41:43.833Z,40.80
2022-09-10T15:44:12.013Z,40.90
2022-09-10T15:46:45.302Z,41.75
2022-09-10T15:49:13.079Z,41.39
2022-09-10T15:51:41.398Z,41.80
2022-09-10T15:54:10.208Z,40.85
2022-09-10T15:56:38.826Z,40.46
2022-09-10T15:59:06.551Z,41.55
2022-09-10T16:01:35.696Z,42.45
2022-09-10T16:04:03.765Z,41.39
2022-09-10T16:06:36.590Z,43.05
2022-09-10T16:09:07.391Z,43.29
2022-09-10T16:11:36.333Z,43.27
2022-09-10T16:14:09.738Z,44.34
2022-09-10T16:16:37.298Z,44.64
2022-09-10T16:19:05.968Z,44.91
2022-09-10T16:21:36.306Z,44.60
2022-09-10T16:24:05.490Z,44.75
2022-09-10T16:26:36.163Z,45.85
2022-09-10T16:29:12.547Z,45.52
2022-09-10T16:31:40.355Z,45.18
2022-09-10T16:34:10.953Z,45.44
2022-09-10T16:36:39.284Z,47.05
2022-09-10T16:39:12.307Z,47.53
2022-09-10T16:41:40.868Z,47.29
2022-09-10T16:44:09.295Z,46.27
2022-09-10T16:46:38.258Z,46.99
2022-09-10T16:49:06.466Z,48.63
2022-09-10T16:51:35.086Z,48.82
2022-09-10T16:54:04.624Z,47.50
2022-09-10T16:56:45.505Z,48.63
2022-09-10T16:59:15.497Z,49.45
2022-09-10T17:01:44.246Z,49.04
2022-09-10T17:04:19.235Z,49.27
2022-09-10T17:06:47.680Z,50.61
2022-09-10T17:09:15.200Z,50.17
2022-09-10T17:11:42.654Z,49.83
2022-09-10T17:14:11.480Z,47.96
2022-09-10T17:16:40.476Z,49.34
2022-09-10T17:19:14.279Z,48.94
2022-09-10T17:21:44.302Z,48.46
2022-09-10T17:24:13.246Z,46.14
2022-09-10T17:26:41.423Z,46.37
2022-09-10T17:29:12.154Z,46.85
2022-09-10T17:31:39.727Z,46.10
2022-09-10T17:34:07.522Z,47.17
2022-09-10T17:36:35.551Z,48.04
2022-09-10T17:39:02.922Z,49.79
2022-09-10T17:41:30.939Z,49.78
2022-09-10T17:43:59.815Z,49.77
2022-09-10T17:46:27.449Z,49.27
2022-09-10T17:48:55.164Z,48.62
2022-09-10T17:51:25.029Z,48.23
2022-09-10T17:53:55.208Z,48.08
2022-09-10T17:56:24.484Z,48.10
2022-09-10T17:58:59.813Z,47.86
2022-09-10T18:01:33.078Z,48.69
2022-09-10T18:04:01.280Z,50.39
2022-09-10T18:06:29.344Z,50.02
2022-09-10T18:09:00.879Z,50.44
2022-09-10T18:11:31.656Z,50.05
2022-09-10T18:13:59.840Z,48.72
2022-09-10T18:16:33.019Z,51.16
2022-09-10T18:19:12.987Z,50.18
2022-09-10T18:21:41.666Z,47.41
2022-09-10T18:24:17.565Z,46.75
2022-09-10T18:26:49.419Z,46.92
2022-09-10T18:29:23.196Z,46.93
2022-09-10T18:31:53.673Z,46.81
2022-09-10T18:34:24.385Z,47.01
2022-09-10T18:36:54.688Z,46.49
2022-09-10T18:39:23.642Z,46.84
2022-09-10T18:41:52.071Z,46.72
2022-09-10T18:44:22.025Z,47.47
2022-09-10T18:46:51.349Z,46.93
2022-09-10T18:49:21.529Z,49.15
2022-09-10T18:51:49.627Z,48.03
2022-09-10T18:54:18.445Z,49.77
2022-09-10T18:56:48.235Z,48.80
2022-09-10T18:59:23.508Z,49.04
2022-09-10T19:01:53.467Z,51.44
2022-09-10T19:04:24.037Z,50.89
2022-09-10T19:06:52.642Z,50.14
2022-09-10T19:09:25.862Z,48.85
2022-09-10T19:11:55.128Z,48.22
2022-09-10T19:14:26.410Z,50.13
2022-09-10T19:16:55.292Z,52.45
2022-09-10T19:19:24.684Z,54.65
2022-09-10T19:21:57.133Z,56.21
2022-09-10T19:24:44.108Z,57.18
2022-09-10T19:27:14.208Z,57.57
2022-09-10T19:29:42.441Z,57.46
2022-09-10T19:32:11.534Z,57.45
2022-09-10T19:34:39.293Z,58.79
2022-09-10T19:37:07.260Z,57.94
2022-09-10T19:39:35.010Z,58.64
2022-09-10T19:42:02.773Z,58.97
2022-09-10T19:44:30.860Z,59.12
2022-09-10T19:46:58.987Z,59.47
2022-09-10T19:49:27.011Z,59.86
2022-09-10T19:51:55.037Z,61.23
2022-09-10T19:54:24.703Z,61.30
2022-09-10T19:56:52.227Z,62.21
2022-09-10T19:59:20.069Z,62.35
2022-09-10T20:01:48.174Z,62.33
2022-09-10T20:04:16.112Z,61.58
2022-09-10T20:06:45.929Z,62.44
2022-09-10T20:09:13.517Z,63.10
2022-09-10T20:11:41.288Z,63.21
2022-09-10T20:14:13.520Z,63.30
2022-09-10T20:16:45.521Z,63.38
2022-09-10T20:19:18.413Z,61.73
2022-09-10T20:21:47.829Z,61.66
2022-09-10T20:24:16.297Z,58.69
2022-09-10T20:26:46.289Z,56.72
2022-09-10T20:29:15.948Z,56.06
2022-09-10T20:31:44.485Z,56.02
2022-09-10T20:34:15.184Z,56.11
2022-09-10T20:36:42.972Z,56.49
2022-09-10T20:39:13.643Z,61.47
2022-09-10T20:41:41.984Z,65.05
2022-09-10T20:44:12.978Z,64.21
2022-09-10T20:46:44.154Z,63.98
2022-09-10T20:49:13.669Z,61.41
2022-09-10T20:51:41.403Z,62.61
2022-09-10T20:54:12.406Z,60.44
2022-09-10T20:56:40.315Z,58.14
2022-09-10T20:59:07.833Z,57.58
2022-09-10T21:01:35.365Z,59.74
2022-09-10T21:04:04.081Z,59.57
2022-09-10T21:06:32.883Z,58.76
2022-09-10T21:09:01.157Z,57.51
2022-09-10T21:11:31.130Z,57.18
2022-09-10T21:14:00.384Z,57.73
2022-09-10T21:16:28.562Z,56.68
2022-09-10T21:19:01.203Z,58.00
2022-09-10T21:21:30.640Z,58.94
2022-09-10T21:24:10.757Z,58.68
2022-09-10T21:26:39.436Z,58.52
2022-09-10T21:29:10.856Z,58.66
2022-09-10T21:31:38.710Z,58.61
2022-09-10T21:34:06.110Z,58.17
2022-09-10T21:36:35.463Z,59.46
2022-09-10T21:39:06.171Z,61.28
2022-09-10T21:41:39.911Z,64.45
2022-09-10T21:44:10.141Z,64.53
2022-09-10T21:46:37.832Z,65.65
2022-09-10T21:49:05.270Z,64.56
2022-09-10T21:51:32.637Z,65.23
2022-09-10T21:54:00.296Z,65.95
2022-09-10T21:56:29.577Z,66.16
2022-09-10T21:58:59.238Z,67.28
2022-09-10T22:01:30.145Z,68.12
2022-09-10T22:04:00.457Z,68.30
2022-09-10T22:06:29.814Z,68.57
2022-09-10T22:08:59.303Z,66.97
2022-09-10T22:11:32.538Z,67.00
2022-09-10T22:14:01.674Z,66.47
2022-09-10T22:16:33.103Z,66.68
2022-09-10T22:19:02.303Z,67.47
2022-09-10T22:21:30.197Z,67.72
2022-09-10T22:23:57.575Z,68.32
2022-09-10T22:26:28.198Z,66.79
2022-09-10T22:28:59.568Z,63.39
2022-09-10T22:31:29.100Z,60.63
2022-09-10T22:34:01.673Z,60.12
2022-09-10T22:36:31.594Z,60.60
2022-09-10T22:39:01.710Z,61.21
2022-09-10T22:41:31.599Z,61.00
2022-09-10T22:43:59.328Z,61.59
2022-09-10T22:46:27.301Z,62.42
2022-09-10T22:48:55.361Z,63.11
2022-09-10T22:51:25.265Z,62.99
2022-09-10T22:53:53.706Z,61.59
2022-09-10T22:56:26.224Z,61.84
2022-09-10T22:58:55.912Z,60.26
2022-09-10T23:01:31.289Z,59.60
2022-09-10T23:04:00.360Z,59.53
2022-09-10T23:06:30.027Z,59.08
2022-09-10T23:09:03.371Z,59.57
2022-09-10T23:11:32.731Z,59.18
2022-09-10T23:14:22.139Z,60.29
2022-09-10T23:16:51.882Z,60.64
2022-09-10T23:19:21.498Z,62.92
2022-09-10T23:21:51.323Z,63.38
2022-09-10T23:24:21.977Z,61.48
2022-09-10T23:26:49.403Z,59.63
2022-09-10T23:29:17.447Z,61.16
2022-09-10T23:31:46.056Z,61.40
2022-09-10T23:34:17.920Z,58.80
2022-09-10T23:36:47.249Z,60.13
2022-09-10T23:39:22.189Z,62.76
2022-09-10T23:41:52.104Z,63.10
2022-09-10T23:44:20.345Z,62.99
2022-09-10T23:46:48.080Z,65.35
2022-09-10T23:49:16.434Z,67.88
2022-09-10T23:51:43.823Z,66.00
2022-09-10T23:54:11.498Z,60.85
2022-09-10T23:56:39.999Z,66.92
2022-09-10T23:59:07.955Z,66.55
